Time;durP1;ratioP1;P1;durP2;ratioP2;P2;SDS_P1;SDS_P2;PMS_P1;PMS_P2;Temp;Humidity;BMP_temperature;BMP_pressure;BME280_temperature;BME280_humidity;BME280_pressure;Samples;Min_cycle;Max_cycle;Signal;HPM_P1;HPM_P2
2023/07/28 00:00:22;;;;;;;6.82;3.03;;;;;;;;;;5001810;28;20042;-75
2023/07/28 00:03:08;;;;;;;4.22;3.05;;;;;;;;;;5018186;28;20029;-74
2023/07/28 00:05:53;;;;;;;4.82;2.60;;;;;;;;;;5020491;28;20033;-75
2023/07/28 00:08:39;;;;;;;4.53;2.67;;;;;;;;;;4994824;28;20480;-73
2023/07/28 00:11:24;;;;;;;7.60;3.25;;;;;;;;;;5010067;28;20453;-73
2023/07/28 00:14:09;;;;;;;6.15;2.92;;;;;;;;;;5005949;28;20038;-72
2023/07/28 00:16:55;;;;;;;5.50;3.42;;;;;;;;;;5006137;28;20499;-73
2023/07/28 00:19:41;;;;;;;7.28;3.15;;;;;;;;;;5018813;28;20029;-74
2023/07/28 00:22:26;;;;;;;4.75;2.85;;;;;;;;;;4992157;28;20048;-73
2023/07/28 00:25:11;;;;;;;3.90;2.70;;;;;;;;;;5011306;28;20270;-73
2023/07/28 00:27:56;;;;;;;5.70;3.10;;;;;;;;;;5021886;28;20080;-72
2023/07/28 00:30:41;;;;;;;5.45;2.95;;;;;;;;;;5005683;28;20120;-73
2023/07/28 00:33:27;;;;;;;3.97;2.45;;;;;;;;;;5006222;28;20048;-73
2023/07/28 00:36:12;;;;;;;3.83;2.40;;;;;;;;;;5018373;28;20468;-73
2023/07/28 00:38:57;;;;;;;4.20;2.55;;;;;;;;;;5008007;28;20041;-74
2023/07/28 00:41:43;;;;;;;5.65;3.03;;;;;;;;;;5010719;28;20303;-74
2023/07/28 00:44:28;;;;;;;5.20;3.00;;;;;;;;;;5016165;28;20044;-74
2023/07/28 00:47:13;;;;;;;3.90;2.97;;;;;;;;;;5008491;28;20041;-75
2023/07/28 00:49:58;;;;;;;3.00;2.28;;;;;;;;;;5004092;28;20033;-70
2023/07/28 00:52:44;;;;;;;6.80;3.38;;;;;;;;;;5016462;28;20464;-72
2023/07/28 00:55:29;;;;;;;6.95;2.80;;;;;;;;;;5012762;28;20087;-73
2023/07/28 00:58:14;;;;;;;4.60;2.17;;;;;;;;;;5012671;28;20033;-72
2023/07/28 01:01:00;;;;;;;3.95;2.70;;;;;;;;;;5018397;28;20354;-72
2023/07/28 01:03:45;;;;;;;5.00;3.40;;;;;;;;;;5031539;28;20052;-73
2023/07/28 01:06:37;;;;;;;5.15;3.08;;;;;;;;;;5011258;28;20300;-72
2023/07/28 01:09:24;;;;;;;4.97;2.67;;;;;;;;;;5009210;28;20037;-73
2023/07/28 01:12:09;;;;;;;4.43;2.53;;;;;;;;;;5015302;28;20032;-74
2023/07/28 01:14:54;;;;;;;4.38;2.53;;;;;;;;;;5026589;28;20432;-72
2023/07/28 01:17:39;;;;;;;7.45;2.70;;;;;;;;;;5012615;28;20045;-72
2023/07/28 01:20:27;;;;;;;6.18;3.00;;;;;;;;;;5021542;28;20075;-74
2023/07/28 01:23:12;;;;;;;4.45;2.70;;;;;;;;;;5012487;28;20243;-74
2023/07/28 01:26:11;;;;;;;4.10;2.70;;;;;;;;;;5015694;28;20441;-74
2023/07/28 01:28:56;;;;;;;4.97;3.00;;;;;;;;;;5012364;28;20052;-75
2023/07/28 01:31:41;;;;;;;5.65;3.40;;;;;;;;;;5011783;28;20644;-74
2023/07/28 01:34:26;;;;;;;6.68;2.80;;;;;;;;;;5022251;28;20029;-74
2023/07/28 01:37:12;;;;;;;6.53;2.53;;;;;;;;;;5020013;28;20041;-75
2023/07/28 01:39:57;;;;;;;4.97;2.70;;;;;;;;;;5021253;28;20083;-74
2023/07/28 01:42:43;;;;;;;4.32;2.67;;;;;;;;;;4996209;28;20106;-77
2023/07/28 01:45:28;;;;;;;4.57;3.10;;;;;;;;;;5015709;28;20052;-73
2023/07/28 01:48:13;;;;;;;4.22;2.83;;;;;;;;;;5018403;28;20038;-74
2023/07/28 01:50:58;;;;;;;4.68;2.45;;;;;;;;;;5006277;28;20034;-75
2023/07/28 01:53:44;;;;;;;3.33;2.35;;;;;;;;;;5026651;28;20117;-69
2023/07/28 01:56:29;;;;;;;3.58;2.50;;;;;;;;;;5015696;28;20488;-70
2023/07/28 01:59:14;;;;;;;3.67;2.83;;;;;;;;;;5010010;28;20029;-69
2023/07/28 02:01:59;;;;;;;4.75;2.35;;;;;;;;;;5018338;28;20120;-71
2023/07/28 02:04:45;;;;;;;6.20;2.60;;;;;;;;;;5008743;28;20048;-69
2023/07/28 02:07:30;;;;;;;4.65;2.88;;;;;;;;;;5016615;28;20025;-68
2023/07/28 02:10:16;;;;;;;4.78;2.40;;;;;;;;;;5016235;28;20029;-71
2023/07/28 02:13:01;;;;;;;3.72;2.42;;;;;;;;;;5029127;28;20030;-70
2023/07/28 02:15:46;;;;;;;4.93;3.13;;;;;;;;;;5037122;28;20392;-70
2023/07/28 02:18:32;;;;;;;9.45;2.78;;;;;;;;;;5004497;28;20034;-69
2023/07/28 02:21:17;;;;;;;4.95;2.47;;;;;;;;;;5013396;28;20030;-70
2023/07/28 02:24:02;;;;;;;3.63;2.78;;;;;;;;;;5011608;28;20067;-71
2023/07/28 02:26:47;;;;;;;4.13;2.72;;;;;;;;;;5023808;28;20508;-69
2023/07/28 02:29:33;;;;;;;5.13;2.55;;;;;;;;;;5023775;28;20348;-72
2023/07/28 02:32:18;;;;;;;4.25;2.65;;;;;;;;;;5013474;28;20040;-71
2023/07/28 02:35:03;;;;;;;4.72;2.42;;;;;;;;;;5012835;28;20147;-71
2023/07/28 02:37:48;;;;;;;5.25;2.35;;;;;;;;;;5015747;28;20133;-72
2023/07/28 02:40:34;;;;;;;3.70;2.20;;;;;;;;;;5015007;28;20112;-71
2023/07/28 02:43:19;;;;;;;4.75;2.45;;;;;;;;;;5004163;28;20037;-71
2023/07/28 02:46:05;;;;;;;4.25;2.50;;;;;;;;;;5001789;28;20375;-73
2023/07/28 02:48:50;;;;;;;2.60;2.20;;;;;;;;;;4992361;28;20022;-74
2023/07/28 02:51:35;;;;;;;5.05;2.55;;;;;;;;;;5004854;28;20033;-75
2023/07/28 02:54:23;;;;;;;4.32;2.20;;;;;;;;;;4994192;28;20041;-73
2023/07/28 02:57:08;;;;;;;4.22;2.20;;;;;;;;;;5012207;28;20488;-74
2023/07/28 02:59:54;;;;;;;5.53;2.72;;;;;;;;;;5000352;28;20034;-73
2023/07/28 03:02:39;;;;;;;6.20;2.55;;;;;;;;;;5005775;28;20100;-72
2023/07/28 03:05:24;;;;;;;5.95;2.70;;;;;;;;;;5014553;28;20040;-72
2023/07/28 03:08:09;;;;;;;3.67;2.22;;;;;;;;;;5013177;28;20041;-73
2023/07/28 03:11:02;;;;;;;3.38;2.40;;;;;;;;;;4993231;28;20065;-73
2023/07/28 03:13:50;;;;;;;3.78;2.50;;;;;;;;;;5000205;28;20080;-72
2023/07/28 03:16:35;;;;;;;3.78;2.85;;;;;;;;;;5007735;28;20033;-72
2023/07/28 03:19:20;;;;;;;4.72;2.53;;;;;;;;;;5006610;28;20092;-72
2023/07/28 03:22:05;;;;;;;3.25;2.25;;;;;;;;;;5016783;28;20037;-71
2023/07/28 03:24:51;;;;;;;4.47;2.75;;;;;;;;;;5006009;28;20468;-74
2023/07/28 03:27:36;;;;;;;3.60;2.50;;;;;;;;;;5014561;28;20125;-71
2023/07/28 03:30:21;;;;;;;4.05;2.60;;;;;;;;;;5018416;28;20048;-70
2023/07/28 03:33:06;;;;;;;4.13;2.88;;;;;;;;;;5010202;28;20032;-69
2023/07/28 03:35:52;;;;;;;5.45;2.33;;;;;;;;;;5024517;28;20205;-72
2023/07/28 03:38:37;;;;;;;6.30;2.63;;;;;;;;;;5008918;28;20072;-71
2023/07/28 03:41:22;;;;;;;4.10;2.90;;;;;;;;;;5021683;28;20037;-70
2023/07/28 03:44:07;;;;;;;5.10;2.60;;;;;;;;;;5019453;28;20032;-73
2023/07/28 03:46:53;;;;;;;4.82;2.10;;;;;;;;;;5021914;28;20037;-71
2023/07/28 03:49:38;;;;;;;3.88;2.70;;;;;;;;;;4984335;28;20036;-68
2023/07/28 03:52:23;;;;;;;4.25;2.10;;;;;;;;;;5000982;28;20034;-69
2023/07/28 03:55:09;;;;;;;3.90;2.13;;;;;;;;;;5005103;28;20021;-68
2023/07/28 03:57:54;;;;;;;6.22;2.75;;;;;;;;;;4999918;28;20034;-70
2023/07/28 04:00:39;;;;;;;3.97;2.45;;;;;;;;;;5001140;28;20068;-72
2023/07/28 04:03:24;;;;;;;5.90;2.50;;;;;;;;;;5001670;28;20044;-69
2023/07/28 04:06:10;;;;;;;4.00;2.10;;;;;;;;;;5005799;28;20038;-69
2023/07/28 04:08:56;;;;;;;3.30;2.28;;;;;;;;;;5015190;28;20683;-70
2023/07/28 04:11:41;;;;;;;4.85;2.63;;;;;;;;;;5010039;28;20112;-68
2023/07/28 04:14:26;;;;;;;4.40;2.40;;;;;;;;;;5001571;28;20054;-69
2023/07/28 04:17:11;;;;;;;3.90;2.67;;;;;;;;;;5017541;28;20129;-70
2023/07/28 04:19:57;;;;;;;3.83;2.55;;;;;;;;;;5012077;28;20022;-74
2023/07/28 04:22:42;;;;;;;3.80;2.50;;;;;;;;;;4999797;28;20081;-71
2023/07/28 04:25:27;;;;;;;4.00;2.65;;;;;;;;;;5002141;28;20088;-70
2023/07/28 04:28:12;;;;;;;3.53;2.50;;;;;;;;;;4995994;28;20034;-70
2023/07/28 04:30:57;;;;;;;4.38;3.05;;;;;;;;;;4993895;28;20098;-70
2023/07/28 04:33:43;;;;;;;2.80;2.50;;;;;;;;;;5016945;28;20100;-70
2023/07/28 04:36:28;;;;;;;5.15;2.63;;;;;;;;;;5010361;28;20204;-70
2023/07/28 04:39:14;;;;;;;8.00;2.60;;;;;;;;;;5012730;28;20060;-70
2023/07/28 04:42:00;;;;;;;3.42;2.53;;;;;;;;;;5024187;28;20040;-70
2023/07/28 04:44:46;;;;;;;3.45;2.42;;;;;;;;;;5011365;28;20044;-70
2023/07/28 04:47:31;;;;;;;3.65;2.75;;;;;;;;;;5008140;28;20033;-70
2023/07/28 04:50:16;;;;;;;4.10;2.80;;;;;;;;;;5011966;28;20026;-70
2023/07/28 04:53:02;;;;;;;4.53;2.67;;;;;;;;;;5010132;28;20416;-71
2023/07/28 04:55:47;;;;;;;4.88;3.17;;;;;;;;;;5025610;28;20037;-69
2023/07/28 04:58:32;;;;;;;6.00;2.50;;;;;;;;;;4998410;28;20026;-72
2023/07/28 05:01:18;;;;;;;5.05;2.40;;;;;;;;;;4984536;28;20029;-71
2023/07/28 05:04:03;;;;;;;5.32;2.78;;;;;;;;;;5004474;28;20496;-76
2023/07/28 05:06:48;;;;;;;7.97;3.58;;;;;;;;;;5020294;28;20487;-77
2023/07/28 05:09:33;;;;;;;3.92;2.58;;;;;;;;;;5013233;28;20026;-70
2023/07/28 05:12:19;;;;;;;3.97;2.83;;;;;;;;;;5015005;28;20418;-68
2023/07/28 05:15:05;;;;;;;4.35;2.70;;;;;;;;;;5036686;28;20029;-78
2023/07/28 05:17:50;;;;;;;3.78;2.80;;;;;;;;;;5018009;28;20491;-74
2023/07/28 05:20:35;;;;;;;5.25;2.97;;;;;;;;;;5007531;28;20025;-74
2023/07/28 05:23:20;;;;;;;3.80;2.97;;;;;;;;;;5029537;28;20033;-73
2023/07/28 05:26:06;;;;;;;4.47;2.58;;;;;;;;;;5012955;28;20377;-76
2023/07/28 05:28:51;;;;;;;5.50;2.90;;;;;;;;;;4999968;28;20046;-74
2023/07/28 05:31:36;;;;;;;3.45;2.90;;;;;;;;;;5020379;28;20025;-74
2023/07/28 05:34:21;;;;;;;6.97;2.92;;;;;;;;;;4997438;28;20022;-68
2023/07/28 05:37:07;;;;;;;5.85;3.22;;;;;;;;;;4997525;28;20384;-66
2023/07/28 05:39:52;;;;;;;4.53;2.80;;;;;;;;;;4997695;28;20128;-64
2023/07/28 05:42:37;;;;;;;5.70;2.75;;;;;;;;;;5008085;28;20048;-67
2023/07/28 05:45:22;;;;;;;8.40;3.15;;;;;;;;;;5008325;28;20053;-65
2023/07/28 05:48:08;;;;;;;4.60;2.95;;;;;;;;;;5020750;28;20033;-66
2023/07/28 05:50:53;;;;;;;5.13;2.70;;;;;;;;;;5007241;28;20048;-73
2023/07/28 05:53:38;;;;;;;6.70;3.08;;;;;;;;;;5000675;28;20463;-70
2023/07/28 05:56:24;;;;;;;4.28;2.90;;;;;;;;;;5011994;28;20081;-75
2023/07/28 05:59:09;;;;;;;8.23;3.17;;;;;;;;;;5021293;28;20546;-72
2023/07/28 06:01:54;;;;;;;4.20;2.90;;;;;;;;;;5008017;28;20041;-73
2023/07/28 06:04:39;;;;;;;6.13;3.25;;;;;;;;;;4997917;28;20038;-74
2023/07/28 06:07:26;;;;;;;5.57;3.15;;;;;;;;;;4991377;28;20030;-72
2023/07/28 06:10:11;;;;;;;6.35;3.17;;;;;;;;;;4990345;28;20116;-73
2023/07/28 06:12:57;;;;;;;6.78;3.50;;;;;;;;;;5011363;28;20021;-68
2023/07/28 06:15:42;;;;;;;6.03;3.65;;;;;;;;;;5024020;28;20041;-65
2023/07/28 06:18:27;;;;;;;5.07;3.03;;;;;;;;;;5006759;28;20032;-65
2023/07/28 06:21:12;;;;;;;13.60;3.90;;;;;;;;;;5009355;28;20400;-65
2023/07/28 06:23:57;;;;;;;5.97;3.67;;;;;;;;;;5005416;28;20036;-67
2023/07/28 06:26:43;;;;;;;5.72;3.25;;;;;;;;;;5001986;28;20041;-65
2023/07/28 06:29:28;;;;;;;7.35;4.55;;;;;;;;;;4993189;28;20026;-72
2023/07/28 06:32:13;;;;;;;6.72;3.25;;;;;;;;;;5010630;28;20029;-74
2023/07/28 06:34:58;;;;;;;8.02;3.78;;;;;;;;;;5008454;28;20037;-73
2023/07/28 06:37:44;;;;;;;6.55;3.22;;;;;;;;;;5024685;28;20038;-74
2023/07/28 06:40:29;;;;;;;6.75;3.67;;;;;;;;;;5028282;28;20029;-74
2023/07/28 06:43:14;;;;;;;9.93;4.10;;;;;;;;;;5008834;28;20076;-74
2023/07/28 06:46:00;;;;;;;6.32;3.53;;;;;;;;;;5024881;28;20099;-74
2023/07/28 06:48:45;;;;;;;5.05;3.08;;;;;;;;;;5015306;28;20037;-70
2023/07/28 06:51:32;;;;;;;9.13;3.80;;;;;;;;;;5020691;28;20021;-71
2023/07/28 06:54:18;;;;;;;6.47;3.50;;;;;;;;;;5011842;28;20442;-70
2023/07/28 06:57:04;;;;;;;6.20;3.20;;;;;;;;;;4997165;28;20120;-69
2023/07/28 06:59:50;;;;;;;9.93;4.35;;;;;;;;;;4977768;28;20033;-70
2023/07/28 07:02:35;;;;;;;7.20;3.95;;;;;;;;;;5009126;28;20501;-69
2023/07/28 07:05:20;;;;;;;5.72;3.80;;;;;;;;;;5008586;28;20389;-70
2023/07/28 07:08:06;;;;;;;6.78;3.40;;;;;;;;;;5030608;28;20025;-68
2023/07/28 07:10:52;;;;;;;4.38;2.90;;;;;;;;;;5008287;28;20072;-69
2023/07/28 07:13:37;;;;;;;6.88;3.58;;;;;;;;;;5010330;28;20030;-68
2023/07/28 07:16:22;;;;;;;9.38;4.13;;;;;;;;;;5023962;28;20033;-69
2023/07/28 07:19:08;;;;;;;4.05;3.10;;;;;;;;;;5011073;28;20037;-68
2023/07/28 07:21:54;;;;;;;7.07;3.97;;;;;;;;;;5008186;28;20034;-71
2023/07/28 07:24:39;;;;;;;5.68;3.55;;;;;;;;;;5005870;28;20493;-71
2023/07/28 07:27:24;;;;;;;8.80;3.72;;;;;;;;;;5023577;28;20408;-76
2023/07/28 07:30:10;;;;;;;6.30;3.90;;;;;;;;;;5012367;28;20115;-76
2023/07/28 07:32:55;;;;;;;5.20;3.53;;;;;;;;;;4993715;28;20741;-77
2023/07/28 07:35:40;;;;;;;5.72;3.72;;;;;;;;;;5013412;28;20384;-77
2023/07/28 07:38:25;;;;;;;6.85;3.50;;;;;;;;;;5015260;28;20034;-77
2023/07/28 07:41:11;;;;;;;7.15;3.45;;;;;;;;;;5024627;28;20025;-73
2023/07/28 07:43:56;;;;;;;5.60;3.45;;;;;;;;;;5011606;28;20169;-70
2023/07/28 07:46:41;;;;;;;5.65;3.45;;;;;;;;;;5018013;28;20022;-68
2023/07/28 07:49:27;;;;;;;8.27;3.83;;;;;;;;;;5007795;28;20026;-69
2023/07/28 07:52:13;;;;;;;5.55;3.40;;;;;;;;;;5003076;28;20602;-68
2023/07/28 07:54:58;;;;;;;7.93;4.03;;;;;;;;;;5009471;28;20045;-67
2023/07/28 07:57:43;;;;;;;6.85;4.43;;;;;;;;;;5025815;28;20105;-69
2023/07/28 08:00:28;;;;;;;5.95;3.42;;;;;;;;;;5011936;28;20036;-77
2023/07/28 08:03:14;;;;;;;7.13;3.30;;;;;;;;;;5027445;28;20053;-74
2023/07/28 08:05:59;;;;;;;6.35;3.67;;;;;;;;;;5011873;28;20117;-73
2023/07/28 08:08:45;;;;;;;4.97;3.28;;;;;;;;;;5015086;28;20041;-73
2023/07/28 08:11:30;;;;;;;5.55;3.75;;;;;;;;;;5023096;28;20242;-73
2023/07/28 08:14:15;;;;;;;5.20;3.80;;;;;;;;;;5002543;28;20032;-74
2023/07/28 08:17:00;;;;;;;7.45;3.65;;;;;;;;;;5014691;28;20476;-71
2023/07/28 08:19:45;;;;;;;6.75;3.83;;;;;;;;;;5011167;28;20463;-70
2023/07/28 08:22:31;;;;;;;7.75;3.70;;;;;;;;;;5014949;28;20034;-74
2023/07/28 08:25:16;;;;;;;8.18;4.57;;;;;;;;;;5014316;28;20033;-73
2023/07/28 08:28:01;;;;;;;6.70;3.67;;;;;;;;;;5014750;28;20035;-73
2023/07/28 08:30:55;;;;;;;7.40;3.90;;;;;;;;;;5024344;28;20124;-73
2023/07/28 08:33:40;;;;;;;9.18;4.15;;;;;;;;;;5008023;28;20041;-72
2023/07/28 08:36:25;;;;;;;9.13;4.18;;;;;;;;;;5009454;28;20058;-70
2023/07/28 08:39:11;;;;;;;6.40;3.90;;;;;;;;;;5011807;28;20021;-75
2023/07/28 08:41:59;;;;;;;6.07;4.13;;;;;;;;;;4997674;28;20104;-74
2023/07/28 08:44:47;;;;;;;6.63;3.55;;;;;;;;;;5025292;28;20028;-74
2023/07/28 08:47:32;;;;;;;8.55;4.07;;;;;;;;;;5013716;28;20029;-75
2023/07/28 08:50:17;;;;;;;8.15;4.28;;;;;;;;;;5013333;28;20296;-75
2023/07/28 08:53:02;;;;;;;5.47;3.97;;;;;;;;;;5026526;28;20384;-76
2023/07/28 08:55:48;;;;;;;6.07;3.58;;;;;;;;;;5029872;28;20041;-74
2023/07/28 08:58:33;;;;;;;10.20;3.90;;;;;;;;;;5023936;28;20038;-73
2023/07/28 09:01:22;;;;;;;10.60;4.00;;;;;;;;;;5002056;28;20029;-72
2023/07/28 09:04:11;;;;;;;10.85;3.90;;;;;;;;;;5015342;28;20029;-73
2023/07/28 09:06:56;;;;;;;8.23;3.80;;;;;;;;;;4989535;28;20073;-73
2023/07/28 09:09:42;;;;;;;5.93;3.35;;;;;;;;;;5006981;28;20477;-73
2023/07/28 09:12:30;;;;;;;5.78;3.50;;;;;;;;;;4993271;28;20087;-73
2023/07/28 09:15:16;;;;;;;5.53;3.50;;;;;;;;;;4996878;28;20408;-70
2023/07/28 09:18:01;;;;;;;6.38;3.10;;;;;;;;;;4998562;28;20041;-69
2023/07/28 09:20:46;;;;;;;11.23;4.65;;;;;;;;;;5016688;28;20056;-69
2023/07/28 09:23:32;;;;;;;5.50;3.38;;;;;;;;;;5000144;28;20474;-69
2023/07/28 09:26:17;;;;;;;7.93;4.25;;;;;;;;;;5004535;28;20061;-70
2023/07/28 09:29:10;;;;;;;7.35;3.88;;;;;;;;;;5021270;28;20435;-69
2023/07/28 09:32:02;;;;;;;12.52;3.78;;;;;;;;;;5001651;28;20189;-68
2023/07/28 09:34:48;;;;;;;5.50;3.50;;;;;;;;;;4996416;28;20119;-76
2023/07/28 09:37:34;;;;;;;5.68;2.90;;;;;;;;;;5012090;28;20025;-74
2023/07/28 09:40:22;;;;;;;5.40;3.58;;;;;;;;;;5009303;28;20079;-74
2023/07/28 09:43:07;;;;;;;6.30;3.50;;;;;;;;;;5009647;28;20121;-75
2023/07/28 09:45:53;;;;;;;4.60;3.15;;;;;;;;;;5007125;28;20739;-75
2023/07/28 09:48:38;;;;;;;5.63;3.38;;;;;;;;;;4994133;28;20087;-74
2023/07/28 09:51:29;;;;;;;10.60;3.63;;;;;;;;;;5016335;28;20120;-69
2023/07/28 09:54:19;;;;;;;7.55;4.40;;;;;;;;;;5010760;28;20052;-69
2023/07/28 09:57:04;;;;;;;6.38;4.07;;;;;;;;;;5008283;28;20261;-69
2023/07/28 09:59:54;;;;;;;9.50;4.18;;;;;;;;;;4994624;28;20068;-67
2023/07/28 10:02:39;;;;;;;;;;;;;;;;;;5020102;28;20025;-67
2023/07/28 10:05:24;;;;;;;8.02;3.92;;;;;;;;;;5010022;28;19924;-67
2023/07/28 10:08:10;;;;;;;8.10;3.78;;;;;;;;;;5017030;28;20038;-74
2023/07/28 10:10:55;;;;;;;7.75;4.30;;;;;;;;;;5007314;28;20033;-70
2023/07/28 10:13:45;;;;;;;8.40;4.25;;;;;;;;;;5006167;28;20037;-76
2023/07/28 10:16:37;;;;;;;7.63;3.83;;;;;;;;;;5022441;28;20115;-76
2023/07/28 10:19:24;;;;;;;8.82;5.00;;;;;;;;;;5001464;28;20500;-79
2023/07/28 10:22:10;;;;;;;36.13;13.75;;;;;;;;;;4995035;28;20025;-73
2023/07/28 10:24:57;;;;;;;20.55;8.43;;;;;;;;;;5009235;28;20080;-74
2023/07/28 10:27:46;;;;;;;23.98;9.35;;;;;;;;;;4990757;28;20040;-75
2023/07/28 10:30:37;;;;;;;16.35;6.75;;;;;;;;;;5011571;28;20034;-74
2023/07/28 10:33:30;;;;;;;18.60;6.40;;;;;;;;;;5009891;28;20147;-70
2023/07/28 10:36:32;;;;;;;7.13;3.67;;;;;;;;;;4978381;28;20051;-68
2023/07/28 10:39:17;;;;;;;13.23;5.75;;;;;;;;;;5011770;28;20091;-68
2023/07/28 10:42:08;;;;;;;10.40;3.55;;;;;;;;;;4991092;28;20045;-71
2023/07/28 10:44:53;;;;;;;9.85;4.72;;;;;;;;;;5021214;28;20041;-71
2023/07/28 10:47:39;;;;;;;7.28;3.35;;;;;;;;;;5010125;28;20337;-77
2023/07/28 10:50:26;;;;;;;8.75;4.22;;;;;;;;;;5011825;28;20086;-72
2023/07/28 10:53:11;;;;;;;10.75;4.60;;;;;;;;;;5004744;28;21567;-71
2023/07/28 10:55:56;;;;;;;6.13;2.80;;;;;;;;;;5023865;28;20022;-70
2023/07/28 10:58:41;;;;;;;2.70;1.90;;;;;;;;;;5004070;28;20029;-72
2023/07/28 11:01:31;;;;;;;3.53;2.15;;;;;;;;;;4993470;28;20422;-71
2023/07/28 11:04:20;;;;;;;2.42;1.70;;;;;;;;;;4995435;28;20022;-69
2023/07/28 11:07:07;;;;;;;7.10;1.77;;;;;;;;;;5008071;28;20473;-76
2023/07/28 11:09:52;;;;;;;1.88;1.23;;;;;;;;;;5008420;28;20056;-77
2023/07/28 11:12:43;;;;;;;3.75;1.52;;;;;;;;;;5009356;28;20033;-79
2023/07/28 11:15:29;;;;;;;1.92;1.42;;;;;;;;;;5010245;28;20043;-73
2023/07/28 11:18:15;;;;;;;1.20;1.10;;;;;;;;;;5012386;28;20076;-74
2023/07/28 11:21:00;;;;;;;2.10;1.42;;;;;;;;;;4993259;28;20040;-72
2023/07/28 11:23:46;;;;;;;3.50;1.63;;;;;;;;;;4987658;28;20116;-82
2023/07/28 11:26:31;;;;;;;2.58;1.55;;;;;;;;;;4988051;28;20034;-70
2023/07/28 11:29:18;;;;;;;1.20;1.10;;;;;;;;;;4995727;28;20511;-70
2023/07/28 11:32:03;;;;;;;1.90;1.45;;;;;;;;;;5007128;28;20438;-68
2023/07/28 11:34:49;;;;;;;1.52;1.42;;;;;;;;;;4997071;28;20033;-69
2023/07/28 11:37:35;;;;;;;2.60;1.55;;;;;;;;;;5019797;28;20032;-67
2023/07/28 11:40:21;;;;;;;3.08;2.22;;;;;;;;;;5007274;28;20347;-71
2023/07/28 11:43:07;;;;;;;4.22;1.40;;;;;;;;;;4995680;28;20034;-76
2023/07/28 11:45:52;;;;;;;1.63;1.30;;;;;;;;;;4995678;28;20385;-72
2023/07/28 11:48:37;;;;;;;3.40;2.00;;;;;;;;;;5008758;28;20079;-71
2023/07/28 11:51:23;;;;;;;2.95;1.70;;;;;;;;;;5010479;28;20116;-71
2023/07/28 11:54:10;;;;;;;3.42;2.00;;;;;;;;;;4997320;28;20045;-74
2023/07/28 11:56:56;;;;;;;2.17;1.65;;;;;;;;;;5011880;28;20075;-73
2023/07/28 11:59:41;;;;;;;5.20;2.10;;;;;;;;;;5007361;28;20084;-78
2023/07/28 12:02:27;;;;;;;2.70;1.80;;;;;;;;;;5002304;28;20029;-76
2023/07/28 12:05:16;;;;;;;3.60;2.10;;;;;;;;;;5020561;28;20037;-78
2023/07/28 12:08:03;;;;;;;3.37;2.30;;;;;;;;;;5005061;28;20181;-77
2023/07/28 12:10:54;;;;;;;4.00;2.60;;;;;;;;;;4976644;28;20257;-74
2023/07/28 12:13:46;;;;;;;6.70;2.28;;;;;;;;;;4986297;28;20367;-74
2023/07/28 12:16:40;;;;;;;4.60;2.35;;;;;;;;;;5007733;28;20159;-77
2023/07/28 12:19:25;;;;;;;3.13;2.10;;;;;;;;;;4981142;28;20431;-71
2023/07/28 12:22:11;;;;;;;2.83;1.90;;;;;;;;;;5011623;28;20036;-68
2023/07/28 12:24:56;;;;;;;12.85;2.63;;;;;;;;;;4986163;28;20041;-69
2023/07/28 12:27:42;;;;;;;2.92;2.50;;;;;;;;;;4995168;28;20037;-69
2023/07/28 12:30:27;;;;;;;2.65;2.10;;;;;;;;;;5010053;28;20042;-69
2023/07/28 12:33:12;;;;;;;3.63;2.67;;;;;;;;;;5010083;28;20056;-68
2023/07/28 12:35:58;;;;;;;4.25;2.78;;;;;;;;;;5022574;28;20047;-70
2023/07/28 12:38:43;;;;;;;5.78;2.45;;;;;;;;;;4985160;28;20133;-76
2023/07/28 12:41:28;;;;;;;3.97;2.00;;;;;;;;;;4972885;28;20422;-78
2023/07/28 12:44:13;;;;;;;9.45;3.22;;;;;;;;;;5011977;28;20034;-76
2023/07/28 12:46:59;;;;;;;8.30;2.53;;;;;;;;;;5000847;28;20121;-74
2023/07/28 12:49:44;;;;;;;4.20;2.50;;;;;;;;;;4993547;28;20470;-75
2023/07/28 12:52:30;;;;;;;5.25;2.92;;;;;;;;;;4988647;28;20030;-75
2023/07/28 12:55:16;;;;;;;3.35;2.50;;;;;;;;;;5002841;28;20065;-74
2023/07/28 12:58:01;;;;;;;5.80;2.72;;;;;;;;;;5010019;28;20109;-74
2023/07/28 13:00:46;;;;;;;4.75;3.05;;;;;;;;;;5009625;28;20069;-74
2023/07/28 13:03:31;;;;;;;3.08;1.95;;;;;;;;;;5009076;28;20103;-75
2023/07/28 13:06:17;;;;;;;3.90;2.08;;;;;;;;;;4995780;28;20037;-76
2023/07/28 13:09:03;;;;;;;3.35;2.60;;;;;;;;;;5018865;28;20081;-75
2023/07/28 13:11:48;;;;;;;4.40;2.45;;;;;;;;;;4999043;28;20037;-76
2023/07/28 13:14:34;;;;;;;5.55;2.90;;;;;;;;;;4999441;28;20092;-75
2023/07/28 13:17:19;;;;;;;2.63;2.00;;;;;;;;;;5017434;28;20038;-75
2023/07/28 13:20:05;;;;;;;3.33;2.05;;;;;;;;;;5009959;28;20030;-74
2023/07/28 13:22:50;;;;;;;3.08;2.30;;;;;;;;;;5006161;28;20030;-73
2023/07/28 13:25:35;;;;;;;6.80;2.75;;;;;;;;;;5014292;28;20155;-73
2023/07/28 13:28:20;;;;;;;4.47;2.90;;;;;;;;;;5008495;28;20109;-75
2023/07/28 13:31:05;;;;;;;5.93;3.03;;;;;;;;;;5006483;28;20116;-77
2023/07/28 13:33:51;;;;;;;4.18;2.53;;;;;;;;;;4996549;28;20203;-75
2023/07/28 13:36:36;;;;;;;5.40;2.60;;;;;;;;;;5006083;28;20123;-76
2023/07/28 13:39:22;;;;;;;5.45;3.05;;;;;;;;;;5027482;28;20035;-75
2023/07/28 13:42:07;;;;;;;4.50;2.90;;;;;;;;;;4996720;28;20080;-71
2023/07/28 13:44:52;;;;;;;5.13;3.30;;;;;;;;;;5011047;28;20041;-69
2023/07/28 13:47:37;;;;;;;9.15;3.63;;;;;;;;;;5013297;28;20469;-70
2023/07/28 13:50:23;;;;;;;7.20;3.40;;;;;;;;;;5026383;28;20048;-67
2023/07/28 13:53:08;;;;;;;10.75;3.97;;;;;;;;;;5012774;28;20120;-84
2023/07/28 13:55:54;;;;;;;9.93;3.85;;;;;;;;;;5033969;28;20512;-85
2023/07/28 13:58:39;;;;;;;7.03;3.53;;;;;;;;;;5025826;28;20021;-90
2023/07/28 14:01:25;;;;;;;7.85;3.85;;;;;;;;;;4992067;28;20085;-78
2023/07/28 14:04:10;;;;;;;7.70;3.50;;;;;;;;;;4997359;28;20484;-84
2023/07/28 14:06:55;;;;;;;10.82;3.40;;;;;;;;;;5010445;28;20022;-84
2023/07/28 14:09:40;;;;;;;7.60;3.47;;;;;;;;;;4994661;28;20022;-73
2023/07/28 14:12:26;;;;;;;8.88;3.88;;;;;;;;;;5001948;28;20038;-69
2023/07/28 14:15:11;;;;;;;6.18;3.13;;;;;;;;;;4991967;28;20118;-67
2023/07/28 14:17:56;;;;;;;5.70;3.35;;;;;;;;;;5005199;28;20144;-68
2023/07/28 14:20:41;;;;;;;6.72;3.42;;;;;;;;;;5022779;28;20314;-68
2023/07/28 14:23:27;;;;;;;7.78;3.88;;;;;;;;;;4999254;28;20155;-69
2023/07/28 14:26:13;;;;;;;6.30;3.30;;;;;;;;;;5000921;28;20665;-71
2023/07/28 14:28:58;;;;;;;5.95;3.53;;;;;;;;;;5003346;28;21852;-71
2023/07/28 14:31:43;;;;;;;5.28;3.63;;;;;;;;;;5016546;28;20037;-70
2023/07/28 14:34:29;;;;;;;4.88;3.30;;;;;;;;;;5009208;28;20413;-68
2023/07/28 14:37:14;;;;;;;6.53;3.53;;;;;;;;;;5023079;28;20094;-71
2023/07/28 14:39:59;;;;;;;5.65;3.67;;;;;;;;;;4984744;28;20414;-68
2023/07/28 14:42:44;;;;;;;6.95;3.30;;;;;;;;;;5011395;28;20029;-70
2023/07/28 14:45:30;;;;;;;5.45;3.35;;;;;;;;;;5004720;28;20029;-68
2023/07/28 14:48:15;;;;;;;7.47;3.75;;;;;;;;;;5004001;28;20029;-75
2023/07/28 14:51:00;;;;;;;7.38;3.33;;;;;;;;;;5013000;28;20321;-67
2023/07/28 14:53:46;;;;;;;5.13;3.08;;;;;;;;;;4996311;28;20037;-67
2023/07/28 14:56:32;;;;;;;6.15;3.50;;;;;;;;;;5018622;28;20052;-68
2023/07/28 14:59:18;;;;;;;6.25;2.70;;;;;;;;;;5007730;28;20036;-66
2023/07/28 15:02:03;;;;;;;5.38;3.08;;;;;;;;;;5005778;28;20036;-66
2023/07/28 15:04:48;;;;;;;7.78;4.18;;;;;;;;;;5002038;28;20131;-63
2023/07/28 15:07:35;;;;;;;6.78;3.97;;;;;;;;;;4992976;28;20080;-68
2023/07/28 15:10:20;;;;;;;5.78;3.20;;;;;;;;;;5010167;28;20384;-70
2023/07/28 15:13:05;;;;;;;7.32;3.78;;;;;;;;;;5026518;28;20040;-67
2023/07/28 15:15:51;;;;;;;3.70;3.00;;;;;;;;;;5009337;28;20025;-67
2023/07/28 15:18:36;;;;;;;5.53;3.00;;;;;;;;;;5010580;28;20056;-68
2023/07/28 15:21:23;;;;;;;9.18;3.25;;;;;;;;;;5014264;28;20049;-68
2023/07/28 15:26:40;;;;;;;7.43;3.30;;;;;;;;;;5020143;28;20072;-77
2023/07/28 15:29:25;;;;;;;5.30;2.83;;;;;;;;;;5012241;28;20045;-78
2023/07/28 15:32:10;;;;;;;6.63;3.90;;;;;;;;;;5016516;28;20110;-75
2023/07/28 15:34:55;;;;;;;4.63;3.25;;;;;;;;;;5012961;28;20428;-75
2023/07/28 15:37:41;;;;;;;6.32;3.20;;;;;;;;;;5015180;28;20037;-74
2023/07/28 15:40:26;;;;;;;7.47;3.67;;;;;;;;;;5015045;28;20030;-67
2023/07/28 15:43:11;;;;;;;5.45;3.00;;;;;;;;;;5023895;28;20040;-76
2023/07/28 15:45:57;;;;;;;10.88;3.33;;;;;;;;;;5006158;28;20123;-75
2023/07/28 15:48:42;;;;;;;6.95;4.10;;;;;;;;;;4998186;28;20124;-76
2023/07/28 15:51:28;;;;;;;9.80;3.47;;;;;;;;;;5013548;28;20541;-76
2023/07/28 15:54:13;;;;;;;4.97;3.15;;;;;;;;;;5028511;28;20035;-76
2023/07/28 15:56:59;;;;;;;6.57;3.67;;;;;;;;;;5009554;28;20123;-76
2023/07/28 15:59:47;;;;;;;8.13;4.05;;;;;;;;;;5009760;28;20041;-68
2023/07/28 16:02:32;;;;;;;7.45;3.13;;;;;;;;;;5011460;28;20125;-76
2023/07/28 16:05:17;;;;;;;6.70;4.07;;;;;;;;;;5012416;28;20032;-77
2023/07/28 16:08:03;;;;;;;5.85;3.70;;;;;;;;;;5013703;28;20045;-76
2023/07/28 16:10:48;;;;;;;6.50;2.90;;;;;;;;;;5020441;28;20061;-76
2023/07/28 16:13:33;;;;;;;5.38;2.88;;;;;;;;;;5016285;28;20079;-77
2023/07/28 16:16:18;;;;;;;6.53;3.78;;;;;;;;;;5013805;28;20040;-64
2023/07/28 16:19:06;;;;;;;6.57;3.92;;;;;;;;;;5012812;28;20041;-65
2023/07/28 16:21:53;;;;;;;7.82;3.92;;;;;;;;;;5013987;28;20037;-74
2023/07/28 16:24:38;;;;;;;5.60;3.38;;;;;;;;;;5019152;28;20029;-74
2023/07/28 16:27:24;;;;;;;4.90;3.30;;;;;;;;;;5012308;28;20038;-74
2023/07/28 16:30:10;;;;;;;5.68;3.67;;;;;;;;;;5023389;28;20492;-75
2023/07/28 16:32:55;;;;;;;7.13;4.10;;;;;;;;;;5016920;28;20453;-73
2023/07/28 16:35:40;;;;;;;7.25;3.88;;;;;;;;;;5015789;28;20127;-66